Time;durP1;ratioP1;P1;durP2;ratioP2;P2;SDS_P1;SDS_P2;PMS_P1;PMS_P2;Temp;Humidity;BMP_temperature;BMP_pressure;BME280_temperature;BME280_humidity;BME280_pressure;Samples;Min_cycle;Max_cycle;Signal;HPM_P1;HPM_P2
2022/07/03 00:01:15;;;;;;;3.08;2.87;;;;;;;17.14;75.64;101209.94;3546087;79;21018;-78
2022/07/03 00:06:06;;;;;;;5.05;3.10;;;;;;;17.05;75.67;101202.53;3540351;79;21314;-78
2022/07/03 00:10:57;;;;;;;9.75;3.72;;;;;;;16.93;75.78;101203.41;3499735;79;21530;-78
2022/07/03 00:15:48;;;;;;;3.62;2.90;;;;;;;16.75;76.00;101197.27;3481672;79;20927;-79
2022/07/03 00:20:45;;;;;;;3.62;3.22;;;;;;;16.66;76.23;101205.16;3480116;79;21485;-78
2022/07/03 00:25:39;;;;;;;5.15;4.20;;;;;;;16.60;76.61;101206.48;3539377;80;20931;-78
2022/07/03 00:30:31;;;;;;;4.00;3.60;;;;;;;16.60;76.87;101210.42;3526844;80;21825;-78
2022/07/03 00:35:23;;;;;;;4.12;3.72;;;;;;;16.66;77.15;101207.78;3537852;80;20947;-78
2022/07/03 00:40:14;;;;;;;4.78;3.67;;;;;;;16.68;77.19;101203.39;3544653;78;20880;-78
2022/07/03 00:45:08;;;;;;;4.20;3.10;;;;;;;16.71;77.34;101208.66;3489476;80;20970;-78
2022/07/03 00:50:05;;;;;;;4.05;3.72;;;;;;;16.73;77.16;101204.27;3504812;80;21458;-78
2022/07/03 00:55:00;;;;;;;3.55;3.20;;;;;;;16.75;77.43;101202.52;3553329;80;21187;-78
2022/07/03 00:59:52;;;;;;;3.33;3.00;;;;;;;16.80;77.38;101196.41;3486347;80;20943;-78
2022/07/03 01:05:13;;;;;;;3.95;3.45;;;;;;;16.80;77.30;101196.41;3549302;79;20936;-78
2022/07/03 01:10:18;;;;;;;4.45;3.62;;;;;;;16.75;77.52;101188.52;3512867;79;20924;-78
2022/07/03 01:15:51;;;;;;;3.80;3.33;;;;;;;16.75;77.54;101193.33;3502169;79;21614;-78
2022/07/03 01:20:47;;;;;;;3.62;3.35;;;;;;;16.75;77.51;101192.02;3532111;79;22000;-78
2022/07/03 01:25:44;;;;;;;5.12;4.62;;;;;;;16.76;77.44;101183.27;3510561;79;20916;-78
2022/07/03 01:30:51;;;;;;;3.80;3.50;;;;;;;16.77;77.53;101182.37;3552400;79;20955;-78
2022/07/03 01:35:51;;;;;;;4.08;3.77;;;;;;;16.81;77.43;101183.70;3548404;80;20990;-78
2022/07/03 01:40:43;;;;;;;3.50;3.20;;;;;;;16.80;77.18;101176.27;3549551;79;21010;-78
2022/07/03 01:45:42;;;;;;;3.58;3.27;;;;;;;16.82;77.37;101173.20;3503613;79;20978;-78
2022/07/03 01:50:33;;;;;;;3.95;3.55;;;;;;;16.83;77.27;101164.87;3511319;79;21253;-78
2022/07/03 01:55:27;;;;;;;5.53;3.60;;;;;;;16.84;77.11;101153.53;3494273;79;21467;-78
2022/07/03 02:00:21;;;;;;;3.37;3.08;;;;;;;16.83;77.04;101148.73;3539452;80;21006;-78
2022/07/03 02:05:37;;;;;;;5.83;3.10;;;;;;;16.83;76.86;101147.80;3511813;80;21449;-78
2022/07/03 02:10:33;;;;;;;4.10;2.58;;;;;;;16.84;76.71;101152.22;3497587;80;21136;-78
2022/07/03 02:15:33;;;;;;;3.90;2.77;;;;;;;16.83;76.70;101147.42;3524322;80;21508;-79
2022/07/03 02:20:25;;;;;;;5.15;3.65;;;;;;;16.80;76.70;101155.70;3491259;79;21473;-78
2022/07/03 02:25:21;;;;;;;3.50;3.15;;;;;;;16.75;76.73;101148.69;3507645;79;22215;-78
2022/07/03 02:30:13;;;;;;;4.27;2.73;;;;;;;16.70;76.75;101147.81;3516046;79;21497;-78
2022/07/03 02:35:16;;;;;;;3.85;2.95;;;;;;;16.58;76.87;101148.72;3529011;79;22035;-78
2022/07/03 02:40:12;;;;;;;3.80;2.65;;;;;;;16.50;76.96;101150.92;3559214;78;20950;-78
2022/07/03 02:45:05;;;;;;;5.67;3.20;;;;;;;16.43;76.89;101155.73;3490809;80;20941;-78
2022/07/03 02:50:10;;;;;;;3.35;2.87;;;;;;;16.32;77.02;101144.79;3484194;80;21505;-78
2022/07/03 02:55:28;;;;;;;3.35;2.98;;;;;;;16.18;76.90;101146.53;3525241;80;20995;-78
2022/07/03 03:00:19;;;;;;;2.83;2.60;;;;;;;16.03;77.10;101145.23;3484089;79;21034;-78
2022/07/03 03:05:28;;;;;;;3.67;3.17;;;;;;;15.97;77.43;101150.00;3492744;79;20967;-78
2022/07/03 03:10:21;;;;;;;3.55;3.20;;;;;;;15.91;77.40;101153.48;3505525;79;21615;-78
2022/07/03 03:15:13;;;;;;;5.87;4.05;;;;;;;16.01;77.64;101155.27;3480048;79;21054;-78
2022/07/03 03:20:06;;;;;;;4.58;3.90;;;;;;;16.62;77.62;101152.22;3459631;79;20955;-78
2022/07/03 03:24:58;;;;;;;2.77;2.58;;;;;;;17.60;76.87;101156.34;3434872;79;21293;-78
2022/07/03 03:29:49;;;;;;;4.78;2.90;;;;;;;18.54;74.80;101146.48;3510142;80;21027;-78
2022/07/03 03:34:41;;;;;;;4.75;2.87;;;;;;;20.22;73.16;101135.66;3509651;80;20970;-78
2022/07/03 03:39:33;;;;;;;6.28;3.40;;;;;;;21.66;70.44;101130.28;3432841;81;21059;-79
2022/07/03 03:44:24;;;;;;;2.62;2.42;;;;;;;21.72;68.38;101128.41;3470576;81;21003;-79
2022/07/03 03:49:16;;;;;;;3.52;2.72;;;;;;;20.64;68.07;101134.08;3484694;79;21139;-79
2022/07/03 03:54:07;;;;;;;2.33;2.12;;;;;;;20.25;68.42;101126.38;3476340;79;20979;-79
2022/07/03 03:58:58;;;;;;;3.12;2.83;;;;;;;19.73;68.55;101124.95;3508312;79;20978;-78
2022/07/03 04:03:49;;;;;;;3.00;2.40;;;;;;;19.04;69.19;101133.27;3518346;79;21046;-78
2022/07/03 04:08:40;;;;;;;3.62;2.42;;;;;;;18.58;69.59;101124.53;3530068;80;20939;-78
2022/07/03 04:13:31;;;;;;;3.42;2.70;;;;;;;18.21;70.14;101120.89;3492941;80;20994;-79
2022/07/03 04:18:23;;;;;;;6.77;2.67;;;;;;;17.92;70.54;101115.87;3508034;80;20911;-78
2022/07/03 04:23:14;;;;;;;4.85;2.58;;;;;;;17.70;70.90;101121.66;3527052;80;21203;-78
2022/07/03 04:28:05;;;;;;;4.22;2.47;;;;;;;17.57;71.16;101123.94;3518660;80;22020;-78
2022/07/03 04:32:57;;;;;;;3.62;2.52;;;;;;;17.48;71.52;101123.09;3502080;80;21241;-78
2022/07/03 04:37:48;;;;;;;5.17;3.05;;;;;;;17.41;71.64;101127.94;3512177;80;21452;-78
2022/07/03 04:42:39;;;;;;;4.50;2.47;;;;;;;17.38;71.77;101125.77;3500621;80;21007;-78
2022/07/03 04:47:30;;;;;;;4.00;2.35;;;;;;;17.37;71.95;101122.73;3495612;80;21037;-78
2022/07/03 04:52:22;;;;;;;4.58;2.98;;;;;;;17.40;72.02;101128.84;3481178;79;20982;-78
2022/07/03 04:57:13;;;;;;;3.80;2.45;;;;;;;17.44;72.17;101125.31;3515725;79;20976;-78
2022/07/03 05:02:04;;;;;;;2.85;2.08;;;;;;;17.51;71.93;101130.97;3462047;80;22260;-78
2022/07/03 05:06:55;;;;;;;2.87;2.02;;;;;;;17.57;71.95;101123.94;3489098;80;21003;-78
2022/07/03 05:11:47;;;;;;;3.58;1.70;;;;;;;17.60;71.88;101119.95;3448673;80;21443;-78
2022/07/03 05:16:38;;;;;;;2.80;1.42;;;;;;;17.65;71.08;101119.07;3431403;79;20944;-78
2022/07/03 05:21:30;;;;;;;1.42;1.20;;;;;;;17.73;70.47;101115.07;3436586;80;20952;-78
2022/07/03 05:26:21;;;;;;;3.40;1.90;;;;;;;17.81;70.23;101117.19;3506965;80;21223;-78
2022/07/03 05:31:13;;;;;;;2.27;1.40;;;;;;;17.93;69.83;101118.91;3401062;81;21267;-78
2022/07/03 05:36:05;;;;;;;3.22;1.50;;;;;;;18.15;69.51;101119.61;3457394;81;20987;-78
2022/07/03 05:40:57;;;;;;;3.83;1.67;;;;;;;18.33;69.04;101122.98;3407713;81;21011;-78
2022/07/03 05:45:48;;;;;;;3.20;1.30;;;;;;;19.09;67.43;101117.87;3447651;80;20954;-78
2022/07/03 05:50:40;;;;;;;2.72;1.12;;;;;;;19.27;66.72;101115.00;3451239;81;21451;-78
2022/07/03 05:55:31;;;;;;;3.98;1.37;;;;;;;19.66;65.56;101111.41;3482546;80;20956;-78
2022/07/03 06:00:22;;;;;;;2.20;1.00;;;;;;;20.07;65.28;101121.80;3449399;80;21174;-78
2022/07/03 06:05:13;;;;;;;2.67;1.30;;;;;;;19.86;65.10;101116.86;3459664;80;21387;-78
2022/07/03 06:10:08;;;;;;;5.50;1.42;;;;;;;19.75;64.68;101122.30;3475004;80;21276;-78
2022/07/03 06:14:59;;;;;;;2.35;1.30;;;;;;;19.65;64.02;101126.78;3433514;80;21171;-78
2022/07/03 06:19:50;;;;;;;1.45;1.10;;;;;;;19.60;63.72;101123.34;3455159;80;20975;-78
2022/07/03 06:24:41;;;;;;;2.55;0.80;;;;;;;19.61;63.31;101121.14;3538246;80;20956;-78
2022/07/03 06:29:32;;;;;;;4.25;1.70;;;;;;;19.62;62.67;101118.94;3478375;81;20959;-77
2022/07/03 06:34:23;;;;;;;4.85;1.47;;;;;;;19.77;62.69;101126.65;3475011;81;20975;-77
2022/07/03 06:39:14;;;;;;;1.23;1.07;;;;;;;20.64;61.59;101131.86;3444121;80;21046;-77
2022/07/03 06:44:05;;;;;;;1.62;1.17;;;;;;;20.64;61.59;101131.86;3489862;80;21634;-78
2022/07/03 06:48:57;;;;;;;2.87;1.35;;;;;;;21.57;60.38;101130.48;3482892;80;21525;-77
2022/07/03 06:53:48;;;;;;;1.60;0.90;;;;;;;21.21;59.77;101127.70;3462965;81;20967;-77
2022/07/03 06:58:40;;;;;;;2.20;1.27;;;;;;;21.35;59.38;101118.59;3447470;79;48958;-77
2022/07/03 07:03:31;;;;;;;2.20;1.05;;;;;;;22.55;57.06;101113.13;3498413;79;21540;-77
2022/07/03 07:08:22;;;;;;;2.33;1.10;;;;;;;22.41;57.49;101110.41;3530158;79;21254;-77
2022/07/03 07:13:13;;;;;;;1.15;0.90;;;;;;;22.06;56.72;101115.23;3476362;79;21476;-77
2022/07/03 07:18:05;;;;;;;2.87;0.98;;;;;;;21.77;56.50;101108.00;3477246;79;20930;-77
2022/07/03 07:22:56;;;;;;;1.90;1.22;;;;;;;21.74;56.40;101104.09;3499126;79;20958;-78
2022/07/03 07:27:48;;;;;;;2.57;1.00;;;;;;;22.79;54.77;101080.67;3511234;79;21717;-78
2022/07/03 07:32:39;;;;;;;2.83;1.37;;;;;;;24.14;53.40;101074.81;3517485;79;21660;-78
2022/07/03 07:37:30;;;;;;;3.05;1.35;;;;;;;27.91;48.42;101066.35;3470442;80;20920;-76
2022/07/03 07:42:21;;;;;;;1.75;0.93;;;;;;;31.18;43.18;101065.33;3531565;79;21484;-76
2022/07/03 07:47:12;;;;;;;1.42;0.98;;;;;;;32.56;42.37;101059.27;3455301;79;20925;-76
2022/07/03 07:52:04;;;;;;;1.47;1.00;;;;;;;35.17;38.80;101058.92;3527813;78;20904;-77
2022/07/03 07:56:55;;;;;;;2.22;1.50;;;;;;;36.72;36.13;101053.09;3519154;78;20998;-77
2022/07/03 08:06:56;;;;;;;2.20;1.20;;;;;;;37.29;34.42;101041.20;3432554;81;20973;-76
2022/07/03 08:11:47;;;;;;;1.20;0.90;;;;;;;34.75;35.88;101048.78;3439595;81;20946;-76
2022/07/03 08:16:38;;;;;;;3.42;1.37;;;;;;;32.62;37.11;101046.27;3428558;82;21536;-76
2022/07/03 08:21:30;;;;;;;1.32;1.10;;;;;;;31.61;36.57;101039.72;3416385;82;20934;-76
2022/07/03 08:26:21;;;;;;;1.62;1.22;;;;;;;32.50;34.94;101047.10;3437754;80;21485;-76
2022/07/03 08:31:12;;;;;;;1.40;1.10;;;;;;;35.28;32.02;101041.36;3504825;80;21000;-76
2022/07/03 08:36:05;;;;;;;1.30;1.20;;;;;;;37.40;30.79;101038.89;3434742;81;20930;-76
2022/07/03 08:40:59;;;;;;;1.65;1.55;;;;;;;38.86;28.64;101033.73;3541047;79;21012;-76
2022/07/03 08:45:50;;;;;;;2.30;1.40;;;;;;;38.02;29.39;101027.23;3461414;82;21042;-76
2022/07/03 08:50:42;;;;;;;2.12;1.20;;;;;;;38.99;28.13;101037.44;3438802;81;20995;-76
2022/07/03 08:55:35;;;;;;;1.17;1.02;;;;;;;39.60;26.90;101027.75;3434053;80;20959;-76
2022/07/03 09:00:27;;;;;;;2.40;1.55;;;;;;;40.17;26.23;101024.17;3503518;79;20919;-76
2022/07/03 09:05:18;;;;;;;1.75;1.35;;;;;;;40.73;26.08;101021.08;3451051;80;21405;-76
2022/07/03 09:10:13;;;;;;;1.17;1.07;;;;;;;40.34;25.72;101016.93;3405737;81;20964;-76
2022/07/03 09:15:08;;;;;;;1.98;1.20;;;;;;;40.57;25.59;101008.23;3420033;81;21482;-76
2022/07/03 09:20:03;;;;;;;1.55;1.45;;;;;;;37.18;27.50;101005.59;3425588;82;21011;-76
2022/07/03 09:25:08;;;;;;;1.17;0.90;;;;;;;34.16;29.73;101009.76;3441255;81;20974;-76
2022/07/03 09:30:07;;;;;;;1.98;1.17;;;;;;;32.03;30.92;101002.80;3418824;82;21263;-76
2022/07/03 09:35:24;;;;;;;2.47;1.85;;;;;;;31.09;31.90;101000.50;3488470;79;20913;-76
2022/07/03 09:40:16;;;;;;;1.35;0.90;;;;;;;33.08;31.00;100992.25;3509819;79;20920;-76
2022/07/03 09:45:08;;;;;;;1.75;1.52;;;;;;;32.37;32.07;100992.41;3439004;81;20973;-76
2022/07/03 09:50:05;;;;;;;2.33;1.37;;;;;;;31.92;32.54;100989.61;3417149;82;20999;-76
2022/07/03 09:55:10;;;;;;;3.45;1.07;;;;;;;34.54;29.93;100991.92;3412422;81;21220;-76
2022/07/03 10:00:21;;;;;;;2.30;1.30;;;;;;;36.32;28.70;100987.52;3502365;79;20995;-76
2022/07/03 10:05:12;;;;;;;2.30;1.20;;;;;;;37.79;27.82;100986.00;3521757;80;20948;-77
2022/07/03 10:10:05;;;;;;;1.40;1.30;;;;;;;38.56;27.39;100986.83;3454456;80;21070;-76
2022/07/03 10:14:56;;;;;;;1.85;1.20;;;;;;;38.53;26.89;100987.11;3512821;80;20971;-76
2022/07/03 10:19:47;;;;;;;1.32;0.95;;;;;;;39.20;26.26;100981.47;3498827;80;22015;-76
2022/07/03 10:24:40;;;;;;;1.77;1.07;;;;;;;39.21;25.96;100967.72;3579636;78;20974;-76
2022/07/03 10:29:33;;;;;;;1.80;1.02;;;;;;;39.48;26.46;100967.83;3547619;78;20955;-76
2022/07/03 10:34:26;;;;;;;1.30;1.20;;;;;;;39.38;25.27;100963.27;3570283;78;20939;-76
2022/07/03 10:39:41;;;;;;;1.07;1.00;;;;;;;36.76;27.14;100957.02;3499886;80;20951;-76
2022/07/03 10:44:47;;;;;;;;;;;;;;;37.39;26.88;100946.34;3491528;80;21512;-76
2022/07/03 10:50:00;;;;;;;2.17;1.25;;;;;;;37.70;26.16;100950.26;3500398;80;20115;-76
2022/07/03 10:54:52;;;;;;;1.27;1.00;;;;;;;38.04;26.70;100951.95;3495433;80;21565;-76
2022/07/03 10:59:48;;;;;;;2.10;1.12;;;;;;;38.19;26.69;100943.36;3499834;80;21323;-76
2022/07/03 11:05:03;;;;;;;2.17;1.10;;;;;;;38.07;27.03;100939.45;3492190;80;20937;-76
2022/07/03 11:10:13;;;;;;;;;;;;;;;35.46;27.85;100940.80;3471938;80;21015;-76
2022/07/03 11:15:32;;;;;;;2.60;1.62;;;;;;;33.75;29.45;100921.68;3503624;81;20138;-76
2022/07/03 11:20:27;;;;;;;3.25;1.40;;;;;;;32.90;32.35;100913.69;3497244;80;20972;-76
2022/07/03 11:25:18;;;;;;;3.33;0.83;;;;;;;32.25;31.73;100910.28;3503634;81;21980;-75
2022/07/03 11:30:12;;;;;;;3.52;1.67;;;;;;;31.74;32.16;100918.31;3461253;80;20965;-75
2022/07/03 11:35:03;;;;;;;1.45;1.10;;;;;;;30.51;33.76;100908.94;3452394;81;21487;-75
2022/07/03 11:39:58;;;;;;;4.30;1.20;;;;;;;30.69;33.56;100915.83;3453708;80;21079;-75
2022/07/03 11:44:49;;;;;;;2.43;1.07;;;;;;;29.76;34.06;100906.41;3501756;80;20984;-75
2022/07/03 11:49:51;;;;;;;2.80;1.30;;;;;;;30.33;35.41;100902.89;3469498;80;20968;-75
2022/07/03 11:54:51;;;;;;;1.52;0.80;;;;;;;30.55;34.55;100897.08;3432721;81;20942;-76
2022/07/03 11:59:42;;;;;;;1.10;1.00;;;;;;;30.71;34.63;100889.75;3563124;78;21457;-75
2022/07/03 12:04:34;;;;;;;3.05;1.30;;;;;;;29.80;34.75;100896.76;3537797;77;20982;-75
2022/07/03 12:09:34;;;;;;;1.50;1.02;;;;;;;29.96;35.34;100894.45;3515656;78;21398;-76
2022/07/03 12:14:42;;;;;;;1.60;1.02;;;;;;;30.52;35.12;100882.02;3530721;77;22029;-75
2022/07/03 12:19:34;;;;;;;2.08;0.90;;;;;;;30.98;35.61;100882.23;3534853;77;21441;-75
2022/07/03 12:24:26;;;;;;;3.85;1.45;;;;;;;31.14;36.47;100866.80;3498881;79;21818;-75
2022/07/03 12:29:18;;;;;;;2.12;1.32;;;;;;;31.39;35.18;100869.18;3539764;77;20912;-75
2022/07/03 12:34:11;;;;;;;2.17;1.15;;;;;;;30.95;34.97;100871.19;3480590;80;22207;-75
2022/07/03 12:39:03;;;;;;;0.95;0.90;;;;;;;30.28;35.97;100865.66;3542420;80;21469;-75
2022/07/03 12:43:57;;;;;;;1.37;1.00;;;;;;;30.64;37.27;100862.94;3499801;80;20963;-76
2022/07/03 12:48:51;;;;;;;1.80;1.10;;;;;;;31.24;36.24;100871.06;3583973;78;21140;-75
2022/07/03 12:53:43;;;;;;;1.50;1.25;;;;;;;30.86;35.96;100865.55;3496914;80;20939;-75
2022/07/03 13:03:49;;;;;;;2.00;1.57;;;;;;;29.41;37.52;100869.19;3558046;80;20936;-75
2022/07/03 13:08:52;;;;;;;2.37;1.30;;;;;;;28.99;37.91;100864.02;3505416;80;21176;-75
2022/07/03 13:13:47;;;;;;;1.70;1.00;;;;;;;28.84;38.33;100865.30;3508964;79;21148;-75
2022/07/03 13:18:44;;;;;;;1.52;1.10;;;;;;;28.68;38.90;100857.28;3533287;78;22014;-75
2022/07/03 13:23:35;;;;;;;1.37;1.27;;;;;;;28.63;39.38;100850.47;3505093;80;21220;-75
2022/07/03 13:28:26;;;;;;;1.37;0.93;;;;;;;29.26;39.33;100839.70;3464783;79;20956;-76
2022/07/03 13:33:17;;;;;;;1.35;1.20;;;;;;;28.94;40.34;100842.02;3501795;80;21009;-74
2022/07/03 13:38:08;;;;;;;1.13;1.00;;;;;;;28.75;40.86;100836.40;3570266;78;21041;-74
2022/07/03 13:42:59;;;;;;;2.62;1.50;;;;;;;28.80;41.08;100842.35;3570351;78;20954;-74
2022/07/03 13:47:50;;;;;;;1.12;1.05;;;;;;;29.01;41.27;100835.35;3533343;78;21046;-75
2022/07/03 13:52:41;;;;;;;1.30;1.00;;;;;;;29.37;41.13;100835.49;3555078;77;21007;-75
2022/07/03 13:57:32;;;;;;;1.10;1.00;;;;;;;28.84;41.60;100833.19;3507958;80;21101;-74
2022/07/03 14:02:25;;;;;;;1.07;1.00;;;;;;;28.89;41.88;100831.11;3536987;79;22466;-74
2022/07/03 14:07:16;;;;;;;1.27;1.20;;;;;;;28.76;42.22;100830.11;3510035;79;21022;-75
2022/07/03 14:12:08;;;;;;;1.42;1.25;;;;;;;28.25;42.79;100825.38;3468693;80;20928;-74
2022/07/03 14:16:59;;;;;;;0.95;0.90;;;;;;;28.54;42.76;100820.23;3468289;78;20955;-74
2022/07/03 14:21:50;;;;;;;1.07;0.98;;;;;;;28.95;42.94;100815.66;3422673;82;20963;-75
2022/07/03 14:37:05;;;;;;;1.77;1.02;;;;;;;28.50;42.99;100808.83;3527841;78;21533;-75
2022/07/03 14:41:56;;;;;;;3.17;1.17;;;;;;;28.33;43.31;100800.40;3534769;78;21003;-75
2022/07/03 14:46:47;;;;;;;1.05;0.90;;;;;;;28.77;43.29;100791.69;3477772;80;20975;-75
2022/07/03 14:51:38;;;;;;;1.80;1.20;;;;;;;29.36;42.34;100788.27;3538131;80;20864;-75
2022/07/03 14:56:31;;;;;;;2.17;1.20;;;;;;;29.04;42.66;100796.37;3485632;80;20959;-75
2022/07/03 15:01:23;;;;;;;1.30;1.20;;;;;;;28.91;42.54;100793.56;3468192;80;21505;-76
2022/07/03 15:06:15;;;;;;;1.30;1.20;;;;;;;28.41;43.36;100787.95;3461633;80;20939;-76
2022/07/03 15:12:26;;;;;;;1.32;1.10;;;;;;;28.37;43.53;100783.26;3480090;78;20972;-76
2022/07/03 15:16:07;;;;;;;1.25;1.10;;;;;;;27.77;44.84;100790.52;3509080;79;21160;-76
2022/07/03 15:20:59;;;;;;;1.37;1.25;;;;;;;27.24;45.77;100794.18;3521342;80;22189;-75
2022/07/03 15:25:50;;;;;;;2.33;1.37;;;;;;;26.93;46.66;100783.27;3521165;80;20936;-76
2022/07/03 15:30:49;;;;;;;1.25;1.15;;;;;;;27.45;46.13;100777.55;3500688;80;20956;-76
2022/07/03 15:35:55;;;;;;;2.92;1.40;;;;;;;27.83;45.83;100774.63;3506246;80;20979;-75
2022/07/03 15:40:56;;;;;;;1.27;1.17;;;;;;;28.30;45.22;100766.69;3475391;80;21043;-76
2022/07/03 15:46:07;;;;;;;2.22;1.72;;;;;;;28.55;44.65;100769.83;3500699;80;20963;-76
2022/07/03 15:51:16;;;;;;;1.57;1.40;;;;;;;28.04;45.05;100767.29;3505840;80;21323;-75
2022/07/03 15:56:10;;;;;;;2.12;1.60;;;;;;;27.30;45.89;100769.41;3495074;80;21010;-75
2022/07/03 16:06:14;;;;;;;1.95;1.72;;;;;;;27.02;46.75;100764.59;3470316;80;21180;-75
2022/07/03 16:11:06;;;;;;;1.55;1.47;;;;;;;27.18;46.78;100760.67;3475664;80;20933;-75
2022/07/03 16:16:00;;;;;;;1.50;1.40;;;;;;;27.19;46.80;100759.27;3438930;79;20968;-75
2022/07/03 16:20:52;;;;;;;2.02;1.60;;;;;;;27.21;47.08;100757.85;3435426;80;20979;-75
2022/07/03 16:25:45;;;;;;;1.52;1.42;;;;;;;27.27;46.96;100755.36;3447714;80;20980;-75
2022/07/03 16:30:48;;;;;;;3.72;1.57;;;;;;;27.33;46.86;100761.25;3461254;80;21004;-75
2022/07/03 16:35:43;;;;;;;1.72;1.62;;;;;;;27.29;46.80;100752.14;3452031;80;20999;-75
2022/07/03 16:40:35;;;;;;;1.77;1.67;;;;;;;27.05;46.99;100743.10;3493370;79;21067;-75
2022/07/03 16:45:33;;;;;;;1.45;1.35;;;;;;;26.77;47.19;100752.50;3462428;79;21036;-75
2022/07/03 16:50:24;;;;;;;1.30;1.20;;;;;;;26.56;47.40;100749.53;3447751;80;21062;-75
2022/07/03 16:55:18;;;;;;;2.02;1.57;;;;;;;26.38;47.66;100752.19;3415126;80;21401;-75
2022/07/03 17:00:13;;;;;;;2.12;1.70;;;;;;;26.03;48.25;100749.87;3477318;80;20960;-75
2022/07/03 17:05:09;;;;;;;3.17;1.80;;;;;;;25.85;48.95;100755.55;3505554;79;20955;-75
2022/07/03 17:10:02;;;;;;;2.12;1.32;;;;;;;25.62;49.63;100757.45;3507227;79;21427;-75
2022/07/03 17:14:53;;;;;;;1.60;1.50;;;;;;;25.45;50.24;100762.22;3539750;79;20958;-75
2022/07/03 17:20:00;;;;;;;1.70;1.60;;;;;;;25.28;50.48;100754.11;3514025;79;21030;-75
2022/07/03 17:24:54;;;;;;;2.77;1.80;;;;;;;25.07;50.90;100753.20;3513874;79;20948;-76
2022/07/03 17:29:50;;;;;;;1.70;1.60;;;;;;;24.86;51.62;100752.31;3495444;79;21029;-76
2022/07/03 17:34:44;;;;;;;2.05;1.95;;;;;;;24.69;52.45;100753.89;3526451;79;21003;-76
2022/07/03 17:39:37;;;;;;;1.50;1.40;;;;;;;24.57;52.34;100749.55;3466115;79;20979;-76
2022/07/03 17:44:30;;;;;;;1.82;1.67;;;;;;;24.69;52.53;100750.38;3521971;79;21971;-76
2022/07/03 17:49:22;;;;;;;2.77;1.60;;;;;;;24.83;52.53;100753.80;3545082;79;20970;-76
2022/07/03 17:54:14;;;;;;;1.67;1.35;;;;;;;24.94;52.41;100752.87;3504131;79;20998;-76
2022/07/03 17:59:06;;;;;;;2.00;1.60;;;;;;;24.93;52.63;100753.78;3579251;79;20988;-76
2022/07/03 18:03:58;;;;;;;2.20;2.00;;;;;;;24.85;52.87;100747.94;3496972;79;20978;-76
2022/07/03 18:09:09;;;;;;;2.15;1.95;;;;;;;24.64;53.23;100750.55;3559497;79;21118;-76
2022/07/03 18:14:07;;;;;;;2.15;1.95;;;;;;;24.46;53.77;100748.63;3512759;80;21014;-76
2022/07/03 18:19:00;;;;;;;1.70;1.60;;;;;;;24.27;54.18;100748.04;3528419;80;21054;-76
2022/07/03 18:23:56;;;;;;;2.00;1.85;;;;;;;24.10;54.58;100745.17;3507627;79;20952;-77
2022/07/03 18:28:49;;;;;;;2.37;2.20;;;;;;;23.97;54.83;100747.44;3529274;79;21562;-77
2022/07/03 18:33:40;;;;;;;1.80;1.70;;;;;;;23.83;55.49;100748.42;3484578;80;22181;-76
2022/07/03 18:38:34;;;;;;;2.42;2.10;;;;;;;23.68;55.51;100745.83;3475460;79;20975;-77
2022/07/03 18:43:32;;;;;;;2.30;1.98;;;;;;;23.54;55.85;100749.88;3518530;79;21309;-77
2022/07/03 18:48:20;;;;;;;2.35;2.17;;;;;;;23.38;55.82;100752.68;3550842;79;20991;-77
2022/07/03 18:53:32;;;;;;;2.30;2.20;;;;;;;23.22;56.27;100751.89;3472036;80;20955;-77
2022/07/03 18:58:36;;;;;;;3.25;2.33;;;;;;;23.06;56.60;100746.72;3496604;79;21063;-77
2022/07/03 19:03:50;;;;;;;2.60;2.35;;;;;;;22.92;57.14;100751.59;3485324;80;21243;-76
2022/07/03 19:09:07;;;;;;;3.75;2.08;;;;;;;22.74;57.33;100759.23;3474680;81;21069;-77
2022/07/03 19:14:11;;;;;;;2.63;2.17;;;;;;;22.57;57.83;100763.77;3424116;81;21485;-76
2022/07/03 19:19:03;;;;;;;2.35;2.15;;;;;;;22.40;58.14;100752.37;3436828;81;21446;-77
2022/07/03 19:23:54;;;;;;;4.15;2.70;;;;;;;22.23;58.85;100759.94;3396742;81;21079;-76
2022/07/03 19:28:46;;;;;;;5.62;3.15;;;;;;;22.07;59.10;100758.20;3424857;81;21078;-76
2022/07/03 19:33:38;;;;;;;3.87;2.92;;;;;;;21.89;59.47;100759.19;3423365;81;21013;-77
2022/07/03 19:38:29;;;;;;;2.87;2.67;;;;;;;21.73;60.05;100754.37;3406053;80;20947;-77
2022/07/03 19:43:20;;;;;;;3.40;3.20;;;;;;;21.60;60.44;100761.33;3417413;80;20995;-77
2022/07/03 19:48:11;;;;;;;3.05;2.83;;;;;;;21.49;60.80;100755.48;3515347;80;21575;-77
2022/07/03 19:53:03;;;;;;;4.62;2.90;;;;;;;21.35;61.09;100765.07;3464421;79;21304;-77
2022/07/03 19:57:54;;;;;;;3.27;3.08;;;;;;;21.25;61.46;100753.89;3502225;79;21732;-77
2022/07/03 20:02:45;;;;;;;3.30;2.83;;;;;;;21.11;61.70;100755.56;3479679;79;20985;-77
2022/07/03 20:07:36;;;;;;;4.90;3.13;;;;;;;21.01;62.09;100759.81;3465416;80;20933;-77
2022/07/03 20:12:29;;;;;;;3.40;3.10;;;;;;;20.88;62.40;100762.76;3383197;79;21060;-77
2022/07/03 20:17:21;;;;;;;3.72;3.42;;;;;;;20.72;62.80;100758.30;3473563;81;20984;-76
2022/07/03 20:22:12;;;;;;;4.20;3.87;;;;;;;20.63;63.17;100758.99;3410091;79;22142;-76
2022/07/03 20:27:11;;;;;;;6.42;3.98;;;;;;;20.46;63.61;100754.06;3417330;81;21050;-77
2022/07/03 20:32:04;;;;;;;3.98;3.60;;;;;;;20.30;63.96;100754.44;3467601;81;21022;-77
2022/07/03 20:36:56;;;;;;;4.35;3.95;;;;;;;20.17;64.28;100751.20;3434111;79;21531;-77
2022/07/03 20:41:47;;;;;;;3.90;3.60;;;;;;;20.05;64.60;100754.11;3420894;81;21107;-77
2022/07/03 20:46:41;;;;;;;4.00;3.70;;;;;;;19.89;65.04;100766.77;3457313;81;21488;-76
2022/07/03 20:51:32;;;;;;;4.33;3.92;;;;;;;19.76;65.34;100768.78;3449831;81;20982;-77
2022/07/03 20:56:23;;;;;;;4.22;3.92;;;;;;;19.67;65.72;100771.55;3480439;79;21022;-77
2022/07/03 21:01:14;;;;;;;4.12;3.83;;;;;;;19.60;66.08;100768.61;3464210;79;21170;-77
2022/07/03 21:06:21;;;;;;;4.03;3.72;;;;;;;19.49;66.14;100777.19;3516495;79;21586;-76
2022/07/03 21:11:31;;;;;;;4.08;3.77;;;;;;;19.32;66.46;100771.79;3470038;79;20944;-76
2022/07/03 21:16:23;;;;;;;3.98;3.58;;;;;;;19.18;66.73;100775.13;3505808;79;20986;-77
2022/07/03 21:21:14;;;;;;;4.20;3.85;;;;;;;19.11;67.13;100781.39;3510346;79;20998;-78
2022/07/03 21:26:06;;;;;;;5.30;4.20;;;;;;;19.05;67.32;100783.23;3552928;79;22139;-77
2022/07/03 21:30:59;;;;;;;4.50;4.10;;;;;;;18.98;67.41;100788.19;3537968;79;21002;-77
2022/07/03 21:35:50;;;;;;;5.30;4.33;;;;;;;18.94;67.50;100784.30;3515560;79;21033;-77
2022/07/03 21:40:42;;;;;;;4.28;3.90;;;;;;;18.89;67.75;100785.72;3476521;79;20978;-77
2022/07/03 21:45:33;;;;;;;4.95;4.60;;;;;;;18.77;67.80;100787.19;3503560;79;21551;-77
2022/07/03 21:50:25;;;;;;;4.45;4.15;;;;;;;18.63;68.04;100781.67;3501954;78;21159;-77
2022/07/03 21:55:18;;;;;;;4.30;4.00;;;;;;;18.57;68.21;100779.15;3506592;80;21011;-78
2022/07/03 22:00:15;;;;;;;6.50;4.55;;;;;;;18.55;68.44;100780.94;3475953;80;21520;-78
2022/07/03 22:05:08;;;;;;;4.90;4.50;;;;;;;18.50;68.47;100777.50;3539121;78;21002;-78
2022/07/03 22:09:59;;;;;;;4.75;4.37;;;;;;;18.45;68.65;100775.38;3547840;78;21470;-78
2022/07/03 22:14:50;;;;;;;5.53;5.12;;;;;;;18.42;68.75;100772.78;3549374;77;21071;-78
2022/07/03 22:19:42;;;;;;;6.15;5.55;;;;;;;18.40;68.96;100770.20;3533496;79;21033;-78
2022/07/03 22:24:35;;;;;;;4.97;4.67;;;;;;;18.37;68.96;100764.08;3502519;79;20939;-78
2022/07/03 22:29:26;;;;;;;5.00;4.53;;;;;;;18.27;69.00;100764.21;3510118;79;20995;-78
2022/07/03 22:34:17;;;;;;;4.55;4.17;;;;;;;18.22;69.26;100759.45;3503445;77;20991;-78
2022/07/03 22:39:08;;;;;;;5.10;4.60;;;;;;;18.20;69.18;100757.30;3536883;78;21289;-78
2022/07/03 22:44:00;;;;;;;6.10;4.75;;;;;;;18.15;69.25;100749.91;3502936;78;20991;-78
2022/07/03 22:48:51;;;;;;;5.03;4.62;;;;;;;18.09;68.98;100748.69;3457247;79;22059;-78
2022/07/03 22:53:42;;;;;;;5.90;5.35;;;;;;;18.03;69.39;100744.84;3513670;80;20978;-78
2022/07/03 22:58:34;;;;;;;5.70;5.30;;;;;;;17.95;69.55;100742.74;3516649;80;20923;-78
2022/07/03 23:03:25;;;;;;;5.85;5.35;;;;;;;17.88;69.55;100741.52;3489383;80;22004;-78
2022/07/03 23:08:16;;;;;;;8.20;5.75;;;;;;;17.77;69.74;100735.92;3485794;80;21007;-78
2022/07/03 23:13:08;;;;;;;5.53;5.10;;;;;;;17.70;70.08;100724.61;3485459;80;20995;-78
2022/07/03 23:17:59;;;;;;;9.00;7.47;;;;;;;17.70;70.15;100721.98;3452415;80;21083;-78